Time;durP1;ratioP1;P1;durP2;ratioP2;P2;SDS_P1;SDS_P2;PMS_P1;PMS_P2;Temp;Humidity;BMP_temperature;BMP_pressure;BME280_temperature;BME280_humidity;BME280_pressure;Samples;Min_cycle;Max_cycle;Signal;HPM_P1;HPM_P2
2023/09/22 00:00:10;;;;;;;8.40;4.82;;;;;;;14.21;100.00;99010.84;4951517;28;20447;-73
2023/09/22 00:02:38;;;;;;;11.38;5.00;;;;;;;14.27;100.00;99009.94;4951577;28;20043;-73
2023/09/22 00:05:07;;;;;;;14.25;4.80;;;;;;;14.19;100.00;99001.34;4952392;28;20043;-72
2023/09/22 00:07:34;;;;;;;17.23;5.35;;;;;;;14.39;100.00;99015.44;4952179;28;20407;-72
2023/09/22 00:10:04;;;;;;;10.68;5.38;;;;;;;14.27;100.00;99009.94;4952224;28;20131;-72
2023/09/22 00:12:32;;;;;;;10.07;4.78;;;;;;;14.27;100.00;99012.66;4952153;28;20496;-72
2023/09/22 00:14:59;;;;;;;8.88;4.70;;;;;;;14.33;100.00;99013.63;4952059;28;20440;-72
2023/09/22 00:17:26;;;;;;;10.25;5.13;;;;;;;14.45;100.00;99016.38;4951749;28;20055;-72
2023/09/22 00:19:54;;;;;;;13.65;5.18;;;;;;;14.31;100.00;98999.53;4935695;28;20044;-72
2023/09/22 00:22:22;;;;;;;15.15;5.45;;;;;;;14.33;100.00;99010.13;4932137;29;20112;-72
2023/09/22 00:24:50;;;;;;;18.25;6.00;;;;;;;14.27;100.00;99015.34;4932502;29;20127;-72
2023/09/22 00:27:17;;;;;;;19.05;5.57;;;;;;;14.21;100.00;99018.94;4933085;29;20496;-72
2023/09/22 00:29:43;;;;;;;15.25;5.63;;;;;;;14.21;100.00;99018.94;4931479;29;20075;-71
2023/09/22 00:32:11;;;;;;;11.88;6.00;;;;;;;14.07;100.00;99022.84;4932563;29;20048;-70
2023/09/22 00:34:39;;;;;;;13.38;5.53;;;;;;;14.14;100.00;99020.88;4932610;29;20047;-72
2023/09/22 00:37:05;;;;;;;11.82;5.50;;;;;;;14.12;100.00;99022.19;4932665;29;20111;-72
2023/09/22 00:39:32;;;;;;;19.35;6.15;;;;;;;14.04;100.00;99007.94;4932483;29;20486;-71
2023/09/22 00:42:01;;;;;;;13.15;6.38;;;;;;;14.04;100.00;99007.09;4932183;29;20416;-70
2023/09/22 00:44:29;;;;;;;12.30;6.60;;;;;;;13.70;100.00;98976.97;4931660;29;20047;-71
2023/09/22 00:46:57;;;;;;;17.05;6.20;;;;;;;13.82;100.00;98977.91;4932363;29;20440;-71
2023/09/22 00:49:24;;;;;;;14.43;6.82;;;;;;;13.67;100.00;98961.25;4932507;28;20468;-71
2023/09/22 00:51:51;;;;;;;13.68;6.30;;;;;;;13.55;100.00;98952.25;4930797;29;20070;-71
2023/09/22 00:54:19;;;;;;;14.00;6.68;;;;;;;13.31;100.00;98927.81;4932189;29;20058;-70
2023/09/22 00:56:46;;;;;;;11.60;6.28;;;;;;;13.55;100.00;98942.28;4932494;28;20118;-71
2023/09/22 00:59:14;;;;;;;16.90;7.70;;;;;;;13.57;100.00;98947.47;4931453;29;20138;-69
2023/09/22 01:01:44;;;;;;;18.10;6.72;;;;;;;13.58;100.00;98947.22;4932389;29;20055;-70
2023/09/22 01:04:12;;;;;;;18.08;7.55;;;;;;;13.63;100.00;98954.66;4932087;29;20138;-71
2023/09/22 01:07:23;;;;;;;15.98;6.70;;;;;;;13.56;100.00;98949.34;4932574;29;20052;-70
2023/09/22 01:09:49;;;;;;;12.85;6.80;;;;;;;13.29;100.00;98913.75;4932752;29;20043;-70
2023/09/22 01:12:16;;;;;;;14.35;6.68;;;;;;;13.18;100.00;98911.81;4934583;28;20055;-71
2023/09/22 01:14:44;;;;;;;12.18;7.40;;;;;;;13.31;100.00;98927.00;4934927;29;20055;-72
2023/09/22 01:17:10;;;;;;;10.75;7.25;;;;;;;13.43;100.00;98940.56;4936180;29;20107;-70
2023/09/22 01:19:38;;;;;;;15.27;7.65;;;;;;;13.62;100.00;98961.09;4949351;28;20053;-73
2023/09/22 01:22:05;;;;;;;16.02;7.93;;;;;;;13.61;100.00;98964.00;4952613;28;20047;-72
2023/09/22 01:24:31;;;;;;;11.50;7.35;;;;;;;13.66;100.00;98964.97;4954347;28;20076;-72
2023/09/22 01:26:58;;;;;;;18.58;8.40;;;;;;;13.59;100.00;98954.28;4953260;28;20534;-72
2023/09/22 01:29:25;;;;;;;17.65;7.90;;;;;;;13.67;100.00;98963.94;4954365;28;20047;-70
2023/09/22 01:31:51;;;;;;;20.40;7.53;;;;;;;13.50;100.00;98944.03;4954481;28;20051;-72
2023/09/22 01:34:20;;;;;;;12.13;7.78;;;;;;;13.34;100.00;98926.56;4954134;28;20411;-72
2023/09/22 01:36:47;;;;;;;14.18;7.65;;;;;;;13.57;100.00;98947.47;4953572;28;20058;-71
2023/09/22 01:39:16;;;;;;;17.02;7.80;;;;;;;13.46;100.00;98950.91;4953247;28;20062;-73
2023/09/22 01:41:43;;;;;;;13.55;8.90;;;;;;;13.54;100.00;98967.59;4952959;28;20043;-71
2023/09/22 01:44:13;;;;;;;14.80;8.07;;;;;;;13.58;100.00;98973.34;4953258;28;20052;-71
2023/09/22 01:46:39;;;;;;;14.40;8.00;;;;;;;13.58;100.00;98981.44;4954104;28;20388;-70
2023/09/22 01:49:06;;;;;;;21.67;8.43;;;;;;;13.65;100.00;98982.19;4952718;28;20047;-69
2023/09/22 01:51:32;;;;;;;14.48;8.43;;;;;;;13.59;100.00;98996.56;4953275;28;20047;-70
2023/09/22 01:54:00;;;;;;;11.80;7.40;;;;;;;13.50;100.00;98981.75;4952911;28;20043;-73
2023/09/22 01:56:26;;;;;;;15.88;7.68;;;;;;;13.50;100.00;98976.34;4953673;28;20451;-70
2023/09/22 01:58:53;;;;;;;18.77;8.27;;;;;;;13.48;100.00;98978.44;4953268;28;20071;-70
2023/09/22 02:01:20;;;;;;;12.10;8.40;;;;;;;13.52;100.00;98983.16;4952839;28;20051;-72
2023/09/22 02:03:47;;;;;;;14.98;8.27;;;;;;;13.62;100.00;98996.13;4953652;28;20407;-72
2023/09/22 02:06:14;;;;;;;16.00;7.72;;;;;;;13.70;100.00;99003.94;4953500;28;20521;-71
2023/09/22 02:08:41;;;;;;;14.85;7.78;;;;;;;13.73;100.00;99008.84;4953223;28;20070;-71
2023/09/22 02:11:11;;;;;;;15.27;7.43;;;;;;;13.73;100.00;99002.63;4952900;28;20051;-70
2023/09/22 02:13:38;;;;;;;13.02;7.53;;;;;;;13.77;100.00;99006.59;4953616;28;20054;-70
2023/09/22 02:16:05;;;;;;;19.17;8.20;;;;;;;13.73;100.00;99006.16;4952868;28;20090;-71
2023/09/22 02:18:32;;;;;;;19.80;7.47;;;;;;;13.69;100.00;98994.19;4947947;28;20420;-72
2023/09/22 02:20:58;;;;;;;14.18;7.40;;;;;;;13.73;100.00;98995.38;4931383;29;20106;-70
2023/09/22 02:23:26;;;;;;;10.57;7.68;;;;;;;13.92;100.00;99015.13;4932712;29;20054;-69
2023/09/22 02:25:53;;;;;;;12.63;7.57;;;;;;;14.00;100.00;99033.69;4934551;29;20067;-72
2023/09/22 02:28:20;;;;;;;12.27;7.75;;;;;;;13.96;100.00;99032.50;4934310;29;20047;-70
2023/09/22 02:30:46;;;;;;;12.68;7.60;;;;;;;14.05;100.00;99033.03;4934353;29;20044;-70
2023/09/22 02:33:14;;;;;;;14.25;7.15;;;;;;;14.11;100.00;99042.09;4934310;29;20052;-71
2023/09/22 02:35:41;;;;;;;13.82;7.15;;;;;;;14.13;100.00;99045.41;4934358;29;20119;-72
2023/09/22 02:38:09;;;;;;;13.45;6.80;;;;;;;14.16;100.00;99047.66;4932842;29;20044;-70
2023/09/22 02:40:35;;;;;;;17.00;7.43;;;;;;;14.20;100.00;99062.31;4932836;29;20123;-71
2023/09/22 02:43:03;;;;;;;11.73;6.70;;;;;;;14.19;100.00;99060.69;4933795;29;20099;-71
2023/09/22 02:45:30;;;;;;;11.73;6.75;;;;;;;14.29;100.00;99082.56;4932236;29;20162;-65
2023/09/22 02:47:56;;;;;;;10.38;6.18;;;;;;;14.27;100.00;99101.66;4929753;29;20043;-65
2023/09/22 02:50:23;;;;;;;13.75;7.35;;;;;;;14.19;100.00;99098.44;4933778;29;20054;-66
2023/09/22 02:52:49;;;;;;;10.68;6.30;;;;;;;14.11;100.00;99087.94;4933983;29;20417;-64
2023/09/22 02:55:16;;;;;;;9.18;6.20;;;;;;;14.14;100.00;99088.31;4933484;29;20055;-67
2023/09/22 02:57:45;;;;;;;15.30;6.13;;;;;;;14.16;100.00;99088.94;4934032;29;20453;-67
2023/09/22 03:00:18;;;;;;;9.90;6.70;;;;;;;14.15;100.00;99089.13;4933579;29;20487;-66
2023/09/22 03:02:49;;;;;;;11.00;5.65;;;;;;;14.21;100.00;99107.94;4933384;29;20374;-68
2023/09/22 03:05:16;;;;;;;14.27;5.43;;;;;;;14.30;100.00;99116.59;4932548;29;20527;-67
2023/09/22 03:07:48;;;;;;;9.35;5.43;;;;;;;14.30;100.00;99117.41;4933648;29;20056;-69
2023/09/22 03:10:14;;;;;;;10.20;4.65;;;;;;;14.29;100.00;99109.53;4933513;29;20055;-68
2023/09/22 03:12:42;;;;;;;7.47;4.00;;;;;;;14.09;100.00;99081.97;4933990;29;20044;-69
2023/09/22 03:15:09;;;;;;;4.82;3.50;;;;;;;14.00;100.00;99076.84;4934020;28;20044;-67
2023/09/22 03:17:37;;;;;;;5.65;3.67;;;;;;;13.72;100.00;99044.13;4933593;29;20535;-69
2023/09/22 03:20:12;;;;;;;9.18;3.20;;;;;;;13.74;100.00;99048.25;4950606;28;20142;-68
2023/09/22 03:22:39;;;;;;;4.85;2.92;;;;;;;13.76;100.00;99048.88;4950262;28;20078;-68
2023/09/22 03:25:08;;;;;;;7.38;2.50;;;;;;;13.40;100.00;98992.19;4952971;28;20640;-67
2023/09/22 03:27:36;;;;;;;2.60;2.35;;;;;;;12.11;100.00;98803.38;4951322;28;20051;-69
2023/09/22 03:30:07;;;;;;;4.15;2.35;;;;;;;12.26;100.00;98819.19;4949469;28;20051;-68
2023/09/22 03:32:35;;;;;;;3.72;2.30;;;;;;;9.56;100.00;98414.91;4950921;28;20069;-67
2023/09/22 03:35:07;;;;;;;7.45;2.50;;;;;;;1.60;100.00;97151.84;4950965;28;20067;-69
2023/09/22 03:37:34;;;;;;;6.45;2.80;;;;;;;-0.30;100.00;96853.34;4950134;28;20067;-68
2023/09/22 03:40:10;;;;;;;4.30;2.35;;;;;;;0.37;100.00;96965.56;4950721;28;20506;-69
2023/09/22 03:42:37;;;;;;;3.25;2.30;;;;;;;4.84;100.00;97695.44;4952954;28;20047;-68
2023/09/22 03:45:03;;;;;;;3.33;2.00;;;;;;;2.61;100.00;97353.44;4951746;28;20051;-69
2023/09/22 03:47:30;;;;;;;3.47;2.28;;;;;;;-0.43;100.00;96877.75;4950860;28;20051;-68
2023/09/22 03:49:57;;;;;;;3.38;2.17;;;;;;;-22.00;100.00;93479.41;4949360;28;20043;-68
2023/09/22 03:52:23;;;;;;;3.85;2.20;;;;;;;-47.85;100.00;89493.16;4951093;28;20047;-68
2023/09/22 03:54:50;;;;;;;2.95;1.77;;;;;;;-149.70;100.00;75107.06;4951103;28;20547;-67
2023/09/22 03:57:18;;;;;;;2.55;1.98;;;;;;;-149.70;100.00;75105.03;4949064;28;20147;-67
2023/09/22 03:59:45;;;;;;;2.90;2.03;;;;;;;-149.70;100.00;75125.34;4951237;28;20134;-67
2023/09/22 04:02:12;;;;;;;8.02;1.80;;;;;;;-149.70;100.00;75137.53;4950536;28;20460;-68
2023/09/22 04:04:39;;;;;;;2.42;1.83;;;;;;;-149.70;100.00;75133.47;4950450;28;20420;-68
2023/09/22 04:07:06;;;;;;;3.20;2.13;;;;;;;-149.70;100.00;75153.81;4951480;28;20059;-68
2023/09/22 04:09:32;;;;;;;3.30;1.88;;;;;;;-149.70;100.00;75172.09;4950787;28;20043;-67
2023/09/22 04:11:59;;;;;;;3.42;1.60;;;;;;;-149.70;100.00;75170.06;4950982;28;20054;-68
2023/09/22 04:14:27;;;;;;;3.08;1.50;;;;;;;-149.70;100.00;75174.13;4948439;28;20473;-69
2023/09/22 04:16:54;;;;;;;2.83;1.50;;;;;;;-149.70;100.00;75170.06;4955390;28;20043;-62
2023/09/22 04:19:21;;;;;;;3.08;1.80;;;;;;;-149.70;100.00;75180.22;4953662;28;20048;-63
2023/09/22 04:21:49;;;;;;;4.20;1.50;;;;;;;-149.70;100.00;75176.16;4945273;29;20048;-62
2023/09/22 04:24:20;;;;;;;2.30;1.35;;;;;;;-149.70;100.00;75182.25;4946135;29;20047;-63
2023/09/22 04:26:48;;;;;;;5.85;1.70;;;;;;;-149.70;100.00;75196.50;4946487;29;20075;-63
2023/09/22 04:29:14;;;;;;;7.95;2.20;;;;;;;-149.70;100.00;75208.69;4941160;29;20051;-64
2023/09/22 04:31:42;;;;;;;5.68;2.33;;;;;;;-149.70;100.00;75214.78;4940107;28;20103;-63
2023/09/22 04:34:09;;;;;;;5.35;2.20;;;;;;;-149.70;100.00;75216.81;4938388;29;20099;-64
2023/09/22 04:36:40;;;;;;;5.40;1.98;;;;;;;-149.70;100.00;75233.06;4938636;29;20051;-62
2023/09/22 04:39:08;;;;;;;5.72;2.55;;;;;;;-149.70;100.00;75222.91;4939409;29;20236;-63
2023/09/22 04:41:34;;;;;;;2.78;2.05;;;;;;;-149.70;100.00;75235.09;4937266;29;20070;-63
2023/09/22 04:44:02;;;;;;;3.65;1.95;;;;;;;-149.70;100.00;75237.13;4937615;29;20043;-63
2023/09/22 04:46:28;;;;;;;5.28;2.53;;;;;;;-149.70;100.00;75247.31;4938549;29;20111;-63
2023/09/22 04:48:55;;;;;;;6.63;2.30;;;;;;;-149.70;100.00;75245.28;4937303;29;20115;-65
2023/09/22 04:51:22;;;;;;;8.13;2.65;;;;;;;-149.70;100.00;75237.13;4941080;29;20071;-64
2023/09/22 04:53:50;;;;;;;4.88;2.17;;;;;;;-149.70;100.00;75239.19;4938141;29;20047;-63
2023/09/22 04:56:16;;;;;;;6.90;2.70;;;;;;;-149.70;100.00;75251.38;4937147;29;20048;-61
2023/09/22 04:58:44;;;;;;;7.38;2.55;;;;;;;-149.70;100.00;75247.31;4934522;29;20095;-64
2023/09/22 05:01:14;;;;;;;7.20;2.53;;;;;;;-149.70;100.00;75267.63;4933346;29;20052;-63
2023/09/22 05:03:40;;;;;;;6.93;2.50;;;;;;;-149.70;100.00;75296.09;4933534;28;20106;-63
2023/09/22 05:06:09;;;;;;;7.22;2.22;;;;;;;-149.70;100.00;75312.34;4932989;29;20052;-64
2023/09/22 05:08:38;;;;;;;4.95;2.60;;;;;;;-149.70;100.00;75306.25;4935137;29;20134;-62
2023/09/22 05:11:07;;;;;;;6.13;2.50;;;;;;;-149.70;100.00;75298.13;4937488;29;20048;-61
2023/09/22 05:13:35;;;;;;;5.97;2.80;;;;;;;-149.70;100.00;75306.25;4937909;29;20047;-63
2023/09/22 05:16:09;;;;;;;6.60;2.40;;;;;;;-149.70;100.00;75304.22;4938904;29;20053;-63
2023/09/22 05:18:36;;;;;;;8.05;2.67;;;;;;;-149.70;100.00;75316.41;4934084;29;20453;-66
2023/09/22 05:21:04;;;;;;;5.43;2.60;;;;;;;-149.70;100.00;75330.66;4929286;29;20086;-66
2023/09/22 05:23:34;;;;;;;9.18;3.28;;;;;;;-149.70;100.00;75334.72;4930091;29;20134;-66
2023/09/22 05:26:07;;;;;;;5.25;2.40;;;;;;;-149.70;100.00;75340.81;4931015;29;20395;-67
2023/09/22 05:28:34;;;;;;;6.43;3.10;;;;;;;-149.70;100.00;75318.44;4930971;29;20071;-65
2023/09/22 05:31:04;;;;;;;4.30;2.78;;;;;;;-149.70;100.00;75314.38;4930126;29;20051;-65
2023/09/22 05:33:33;;;;;;;5.13;2.90;;;;;;;-149.70;100.00;75306.25;4930992;29;20448;-66
2023/09/22 05:35:59;;;;;;;5.95;2.80;;;;;;;-149.70;100.00;75300.16;4929855;29;20052;-66
2023/09/22 05:38:26;;;;;;;9.02;3.65;;;;;;;-149.70;100.00;75304.22;4930124;29;20123;-66
2023/09/22 05:40:52;;;;;;;7.07;3.20;;;;;;;-149.70;100.00;75296.09;4931987;29;20052;-65
2023/09/22 05:43:22;;;;;;;7.60;3.75;;;;;;;-149.70;100.00;75302.19;4929374;29;20055;-65
2023/09/22 05:45:54;;;;;;;5.47;3.10;;;;;;;-149.70;100.00;75310.31;4930865;29;20043;-66
2023/09/22 05:48:21;;;;;;;8.32;3.72;;;;;;;-149.70;100.00;75320.47;4930203;29;20163;-65
2023/09/22 05:50:59;;;;;;;5.78;3.10;;;;;;;-149.70;100.00;75318.44;4931348;29;20044;-66
2023/09/22 05:53:27;;;;;;;8.93;3.40;;;;;;;-149.70;100.00;75320.47;4931218;29;20051;-66
2023/09/22 05:56:10;;;;;;;5.95;3.10;;;;;;;-149.70;100.00;75336.75;4932339;29;20118;-66
2023/09/22 05:58:38;;;;;;;7.35;2.97;;;;;;;-149.70;100.00;75348.94;4935115;29;20130;-64
2023/09/22 06:01:10;;;;;;;9.35;2.80;;;;;;;-149.70;100.00;75375.38;4932928;29;20056;-64
2023/09/22 06:03:39;;;;;;;10.55;3.13;;;;;;;-149.70;100.00;75381.47;4933217;29;20139;-65
2023/09/22 06:06:14;;;;;;;7.65;3.20;;;;;;;-149.70;100.00;75377.41;4933976;29;20431;-68
2023/09/22 06:08:46;;;;;;;4.80;2.80;;;;;;;-149.70;100.00;75365.22;4934354;29;20066;-68
2023/09/22 06:11:14;;;;;;;5.32;2.63;;;;;;;-149.70;100.00;75371.31;4933700;29;20051;-69
2023/09/22 06:13:41;;;;;;;5.85;2.90;;;;;;;-149.70;100.00;75361.13;4932799;29;20047;-69
2023/09/22 06:16:09;;;;;;;5.93;2.63;;;;;;;-149.70;100.00;75363.16;4933092;29;20048;-68
2023/09/22 06:18:40;;;;;;;6.22;2.70;;;;;;;-149.70;100.00;75389.59;4939535;28;20051;-69
2023/09/22 06:21:07;;;;;;;7.00;2.47;;;;;;;-149.70;100.00;75387.56;4953175;28;20051;-69
2023/09/22 06:23:34;;;;;;;7.40;2.85;;;;;;;-149.70;100.00;75367.25;4954192;28;20070;-69
2023/09/22 06:26:03;;;;;;;7.90;2.45;;;;;;;-149.70;100.00;75361.13;4954010;28;20106;-68
2023/09/22 06:28:29;;;;;;;4.07;2.38;;;;;;;-149.70;100.00;75359.09;4953019;28;20518;-69
2023/09/22 06:31:03;;;;;;;7.00;2.83;;;;;;;-149.70;100.00;75367.25;4954528;28;20412;-67
2023/09/22 06:33:30;;;;;;;8.10;2.90;;;;;;;-149.70;100.00;75357.06;4953004;28;20416;-69
2023/09/22 06:35:58;;;;;;;5.60;3.03;;;;;;;-149.70;100.00;75348.94;4954102;28;20050;-68
2023/09/22 06:38:25;;;;;;;8.02;2.65;;;;;;;-149.70;100.00;75363.16;4953782;28;20116;-69
2023/09/22 06:40:55;;;;;;;6.22;2.13;;;;;;;-149.70;100.00;75359.09;4953763;28;20106;-69
2023/09/22 06:43:24;;;;;;;6.55;2.92;;;;;;;-149.70;100.00;75346.91;4952681;28;20051;-68
2023/09/22 06:45:52;;;;;;;8.15;2.90;;;;;;;-149.70;100.00;75344.88;4952934;28;20403;-69
2023/09/22 06:48:22;;;;;;;6.63;3.08;;;;;;;-149.70;100.00;75344.88;4953069;28;20061;-68
2023/09/22 06:50:51;;;;;;;7.65;3.00;;;;;;;-149.70;100.00;75338.78;4953699;28;21203;-67
2023/09/22 06:53:21;;;;;;;5.15;2.90;;;;;;;-149.70;100.00;75324.56;4953112;28;20051;-69
2023/09/22 06:55:49;;;;;;;5.80;2.58;;;;;;;-149.70;100.00;75316.41;4952589;28;20051;-70
2023/09/22 06:58:15;;;;;;;7.97;3.53;;;;;;;-149.70;100.00;75324.56;4953279;28;20145;-69
2023/09/22 07:00:42;;;;;;;5.45;2.70;;;;;;;-149.70;100.00;75328.63;4952693;28;20051;-68
2023/09/22 07:03:09;;;;;;;8.00;2.30;;;;;;;-149.70;100.00;75336.75;4952634;28;20047;-70
2023/09/22 07:05:36;;;;;;;9.18;2.28;;;;;;;-149.70;100.00;75334.72;4952953;28;20423;-68
2023/09/22 07:08:03;;;;;;;8.70;2.28;;;;;;;-149.70;100.00;75340.81;4951601;28;20051;-69
2023/09/22 07:10:33;;;;;;;5.60;1.95;;;;;;;-149.70;100.00;75332.69;4952684;28;20058;-69
2023/09/22 07:12:59;;;;;;;6.05;2.67;;;;;;;-149.70;100.00;75348.94;4952660;28;20055;-68
2023/09/22 07:15:27;;;;;;;10.63;2.40;;;;;;;-149.70;100.00;75355.03;4953836;28;20098;-69
2023/09/22 07:17:54;;;;;;;6.97;2.40;;;;;;;-9.74;100.00;95740.66;4952943;28;20043;-69
2023/09/22 07:20:21;;;;;;;8.13;2.60;;;;;;;2.89;100.00;97775.28;4933847;29;20058;-69
2023/09/22 07:22:48;;;;;;;8.73;3.03;;;;;;;3.03;100.00;97825.75;4932812;29;20103;-68
2023/09/22 07:25:15;;;;;;;7.75;2.33;;;;;;;3.12;100.00;97851.97;4933541;29;20083;-68
2023/09/22 07:27:43;;;;;;;5.07;2.45;;;;;;;2.55;100.00;97759.94;4933071;29;20127;-69
2023/09/22 07:30:10;;;;;;;5.18;2.05;;;;;;;3.11;100.00;97846.88;4932959;29;20135;-69
2023/09/22 07:32:38;;;;;;;5.53;2.08;;;;;;;3.62;100.00;97931.75;4933143;29;20051;-70
2023/09/22 07:35:06;;;;;;;9.93;3.00;;;;;;;2.81;100.00;97791.22;4933461;29;20099;-70
2023/09/22 07:37:34;;;;;;;5.55;2.10;;;;;;;3.66;100.00;97929.53;4933376;29;20051;-70
2023/09/22 07:40:08;;;;;;;4.82;2.42;;;;;;;4.11;100.00;98008.06;4934387;29;20044;-69
2023/09/22 07:42:37;;;;;;;9.30;2.22;;;;;;;4.99;100.00;98154.94;4934238;29;20460;-69
2023/09/22 07:45:06;;;;;;;3.67;2.05;;;;;;;5.76;100.00;98276.63;4934727;29;20047;-68
2023/09/22 07:47:34;;;;;;;9.63;2.38;;;;;;;5.31;100.00;98216.63;4934397;29;20102;-69
2023/09/22 07:50:01;;;;;;;7.63;3.38;;;;;;;4.43;100.00;98090.94;4933627;29;20051;-69
2023/09/22 07:52:28;;;;;;;4.55;2.22;;;;;;;4.80;100.00;98129.81;4934980;29;20051;-68
2023/09/22 07:54:56;;;;;;;7.88;2.30;;;;;;;4.44;100.00;98084.63;4934344;29;20086;-72
2023/09/22 07:57:23;;;;;;;7.13;2.42;;;;;;;4.61;100.00;98127.72;4933599;29;20408;-72
2023/09/22 07:59:50;;;;;;;5.32;2.40;;;;;;;4.56;100.00;98125.63;4933539;29;20094;-71
2023/09/22 08:02:17;;;;;;;14.13;8.68;;;;;;;5.35;100.00;98244.47;4933304;29;20055;-71
2023/09/22 08:04:44;;;;;;;5.70;2.40;;;;;;;5.49;100.00;98276.38;4933382;29;20087;-71
2023/09/22 08:07:11;;;;;;;4.93;2.22;;;;;;;4.84;100.00;98205.47;4932440;28;20058;-69
2023/09/22 08:09:37;;;;;;;5.28;2.45;;;;;;;-1.22;100.00;97238.59;4933093;28;20051;-70
2023/09/22 08:12:05;;;;;;;6.00;2.55;;;;;;;2.54;100.00;97813.03;4933172;28;20047;-71
2023/09/22 08:14:31;;;;;;;5.80;2.22;;;;;;;4.33;100.00;98117.75;4933421;28;20460;-72
2023/09/22 08:17:18;;;;;;;5.95;2.40;;;;;;;4.86;100.00;98187.47;4933170;28;20055;-72
2023/09/22 08:19:44;;;;;;;8.63;3.08;;;;;;;5.11;100.00;98227.88;4948011;28;20087;-71
2023/09/22 08:22:11;;;;;;;5.30;2.50;;;;;;;2.41;100.00;97806.53;4950969;28;20047;-72
2023/09/22 08:24:38;;;;;;;5.82;2.60;;;;;;;4.25;100.00;98102.75;4951949;28;20051;-72
2023/09/22 08:27:06;;;;;;;4.40;2.47;;;;;;;5.53;100.00;98268.84;4952270;28;20047;-72
2023/09/22 08:29:33;;;;;;;5.63;1.98;;;;;;;7.11;100.00;98516.44;4951767;28;20103;-72
2023/09/22 08:32:00;;;;;;;4.55;2.20;;;;;;;8.08;100.00;98654.56;4952096;28;20054;-70
2023/09/22 08:34:26;;;;;;;7.13;2.33;;;;;;;8.30;100.00;98710.63;4937959;29;20206;-72
2023/09/22 08:36:53;;;;;;;3.75;2.22;;;;;;;9.00;100.00;98819.22;4932466;29;20048;-71
2023/09/22 08:39:20;;;;;;;4.65;2.17;;;;;;;8.54;100.00;98778.81;4932632;28;20060;-73
2023/09/22 08:41:47;;;;;;;6.50;2.70;;;;;;;8.90;100.00;98815.25;4933557;28;20130;-72
2023/09/22 08:44:16;;;;;;;3.33;1.98;;;;;;;8.33;100.00;98779.66;4931157;28;20504;-71
2023/09/22 08:46:43;;;;;;;3.83;2.00;;;;;;;8.36;100.00;98780.13;4932843;28;20054;-71
2023/09/22 08:49:10;;;;;;;3.55;1.80;;;;;;;8.17;100.00;98755.91;4931536;28;20055;-72
2023/09/22 08:51:38;;;;;;;8.52;2.00;;;;;;;8.26;100.00;98760.09;4933035;28;20059;-71
2023/09/22 08:54:05;;;;;;;3.67;2.15;;;;;;;8.51;100.00;98808.59;4933085;28;20039;-71
2023/09/22 08:56:34;;;;;;;5.20;2.25;;;;;;;8.52;100.00;98816.41;4932368;28;20063;-73
2023/09/22 08:59:00;;;;;;;9.18;2.10;;;;;;;8.32;100.00;98792.19;4933210;28;20071;-70
2023/09/22 09:01:27;;;;;;;7.78;2.28;;;;;;;8.18;100.00;98792.28;4933492;28;20055;-72
2023/09/22 09:03:54;;;;;;;5.20;2.10;;;;;;;7.80;100.00;98742.59;4932774;28;20048;-72
2023/09/22 09:06:21;;;;;;;5.97;2.67;;;;;;;7.82;100.00;98742.44;4932767;28;20044;-71
2023/09/22 09:09:08;;;;;;;3.92;2.50;;;;;;;7.56;100.00;98702.94;4932453;28;20110;-71
2023/09/22 09:11:35;;;;;;;4.00;1.95;;;;;;;7.69;100.00;98724.44;4932882;28;20044;-72
2023/09/22 09:14:20;;;;;;;5.70;2.30;;;;;;;7.97;100.00;98764.56;4932673;28;20047;-76
2023/09/22 09:16:47;;;;;;;7.30;2.40;;;;;;;7.80;100.00;98757.81;4932932;28;20044;-72
2023/09/22 09:19:15;;;;;;;3.30;2.33;;;;;;;8.01;100.00;98779.19;4943161;28;20055;-71
2023/09/22 09:22:08;;;;;;;3.88;2.03;;;;;;;7.86;100.00;98770.44;4951104;28;20507;-69
2023/09/22 09:24:35;;;;;;;3.30;1.75;;;;;;;8.07;100.00;98813.16;4952007;28;20079;-69
2023/09/22 09:27:18;;;;;;;8.95;2.78;;;;;;;8.27;100.00;98824.03;4952111;28;20050;-69
2023/09/22 09:29:53;;;;;;;3.75;1.80;;;;;;;8.01;100.00;98810.41;4952328;28;20098;-68
2023/09/22 09:32:26;;;;;;;2.95;2.00;;;;;;;7.68;100.00;98754.00;4956324;28;20047;-69
2023/09/22 09:34:54;;;;;;;3.72;1.80;;;;;;;7.72;100.00;98757.94;4956222;28;20047;-68
2023/09/22 09:37:21;;;;;;;4.88;2.22;;;;;;;7.83;100.00;98763.59;4956078;28;20519;-68
2023/09/22 09:39:51;;;;;;;6.15;3.13;;;;;;;8.30;100.00;98812.13;4955984;28;20102;-68
2023/09/22 09:42:25;;;;;;;6.18;2.10;;;;;;;8.76;100.00;98875.84;4955994;28;20600;-69
2023/09/22 09:44:54;;;;;;;3.67;1.88;;;;;;;9.25;100.00;98942.69;4956196;28;20043;-69
2023/09/22 09:47:30;;;;;;;2.75;1.52;;;;;;;9.26;100.00;98964.91;4955744;28;20054;-69
2023/09/22 09:49:58;;;;;;;4.18;2.90;;;;;;;9.43;100.00;98976.16;4955941;28;20447;-69
2023/09/22 09:52:52;;;;;;;6.88;2.40;;;;;;;9.30;100.00;98971.53;4955731;28;20488;-69
2023/09/22 09:55:21;;;;;;;4.72;2.42;;;;;;;9.26;100.00;98972.94;4950644;28;20051;-68
2023/09/22 09:57:52;;;;;;;4.95;2.08;;;;;;;8.98;100.00;98930.91;4954798;28;20451;-68
2023/09/22 10:00:19;;;;;;;7.38;2.65;;;;;;;9.30;100.00;98960.81;4955417;28;20200;-68
2023/09/22 10:02:51;;;;;;;5.97;1.90;;;;;;;9.30;100.00;98958.13;4955552;28;20130;-68
2023/09/22 10:05:19;;;;;;;8.07;3.95;;;;;;;9.60;100.00;98998.09;4955504;28;20055;-68
2023/09/22 10:07:49;;;;;;;6.15;3.55;;;;;;;9.59;100.00;99007.97;4955431;28;20047;-68
2023/09/22 10:10:18;;;;;;;5.20;2.20;;;;;;;9.53;100.00;99000.72;4955061;28;20141;-68
2023/09/22 10:12:47;;;;;;;3.92;1.48;;;;;;;9.48;100.00;98984.44;4955033;28;20051;-69
2023/09/22 10:15:14;;;;;;;3.63;1.70;;;;;;;9.41;100.00;98981.72;4954616;28;20058;-68
2023/09/22 10:17:40;;;;;;;3.72;1.67;;;;;;;9.72;100.00;99009.94;4955482;28;20047;-68
2023/09/22 10:20:13;;;;;;;7.75;1.73;;;;;;;9.64;100.00;99010.88;4937026;28;20074;-69
2023/09/22 10:22:41;;;;;;;7.10;1.73;;;;;;;9.83;100.00;99021.94;4934504;29;20103;-69
2023/09/22 10:25:13;;;;;;;2.72;1.40;;;;;;;10.03;100.00;99038.97;4936290;29;20605;-69
2023/09/22 10:27:57;;;;;;;3.92;1.58;;;;;;;10.04;100.00;99046.78;4936067;29;20051;-69
2023/09/22 10:30:45;;;;;;;4.50;1.30;;;;;;;10.55;100.00;99127.88;4936205;29;20477;-69
2023/09/22 10:33:24;;;;;;;4.03;1.63;;;;;;;10.90;100.00;99159.00;4935549;29;20055;-70
2023/09/22 10:35:50;;;;;;;3.80;1.58;;;;;;;10.90;100.00;99168.91;4935433;29;20048;-68
2023/09/22 10:38:20;;;;;;;2.17;1.38;;;;;;;10.70;100.00;99126.72;4935639;29;20107;-69
2023/09/22 10:41:02;;;;;;;6.55;1.70;;;;;;;10.27;100.00;99089.38;4935772;29;20044;-69
2023/09/22 10:43:32;;;;;;;8.35;1.90;;;;;;;10.58;100.00;99120.28;4935477;29;20052;-69
2023/09/22 10:45:59;;;;;;;3.90;1.40;;;;;;;10.51;100.00;99114.03;4935814;29;20039;-70
2023/09/22 10:48:37;;;;;;;5.25;1.75;;;;;;;10.09;100.00;99075.66;4935661;29;20523;-69
2023/09/22 10:51:06;;;;;;;5.28;1.92;;;;;;;9.59;100.00;98996.44;4935482;29;20126;-68
2023/09/22 10:53:38;;;;;;;3.13;1.52;;;;;;;10.45;100.00;99115.66;4935499;29;20052;-69
2023/09/22 10:56:05;;;;;;;5.47;2.28;;;;;;;10.40;100.00;99110.03;4935536;29;20051;-69
2023/09/22 10:58:32;;;;;;;5.57;1.83;;;;;;;10.22;100.00;99093.66;4935545;29;20476;-68
2023/09/22 11:01:08;;;;;;;3.17;1.48;;;;;;;9.59;100.00;98999.13;4936087;29;20460;-69
2023/09/22 11:03:35;;;;;;;4.25;1.77;;;;;;;9.70;100.00;99006.59;4935382;29;20047;-68
2023/09/22 11:06:06;;;;;;;4.10;2.13;;;;;;;9.66;100.00;99005.34;4935397;29;20047;-69
2023/09/22 11:08:34;;;;;;;3.85;1.70;;;;;;;9.89;100.00;99042.56;4935179;29;20047;-68
2023/09/22 11:11:02;;;;;;;3.40;1.70;;;;;;;9.16;100.00;98937.63;4935010;29;20055;-68
2023/09/22 11:13:29;;;;;;;6.97;1.83;;;;;;;9.24;100.00;98949.06;4935697;29;20048;-68
2023/09/22 11:15:57;;;;;;;3.88;2.13;;;;;;;9.19;100.00;98958.66;4934644;29;20103;-68
2023/09/22 11:18:32;;;;;;;5.40;1.95;;;;;;;6.07;100.00;98467.97;4939026;28;20047;-68
2023/09/22 11:21:12;;;;;;;4.60;1.90;;;;;;;7.82;100.00;98756.59;4953953;28;20051;-67
2023/09/22 11:23:40;;;;;;;3.92;1.58;;;;;;;7.07;100.00;98621.81;4953170;28;20207;-68
2023/09/22 11:26:10;;;;;;;3.97;1.55;;;;;;;8.02;100.00;98778.19;4954194;28;20051;-68
2023/09/22 11:28:44;;;;;;;5.72;2.00;;;;;;;7.85;100.00;98736.75;4954024;28;20130;-68